This is the latest recevied weather packets stored in our database for station/object XE1GMR. If no packets are shown the sender has not sent any weather packets the latest 10 day(s).
| Time | Temp. | Humidity | Pressure | Rain* | Wind** | Luminosity | Snow |
|---|---|---|---|---|---|---|---|
| 1778286360 | 24.44° C | 50% | 1118.1 hPa | 0 mm | - | 27 W/m² | - |
| 1778286057 | 25° C | 47% | 1118.2 hPa | 0 mm | - | 39 W/m² | - |
| 1778285754 | 25.56° C | 48% | 1118.1 hPa | 0 mm | - | 47 W/m² | - |
| 1778285450 | 26.67° C | 44% | 1118 hPa | 0 mm | - | 88 W/m² | - |
| 1778285149 | 28.89° C | 36% | 1117.7 hPa | 0 mm | - | 93 W/m² | - |
| 1778284844 | 28.89° C | 35% | 1117.7 hPa | 0 mm | - | 96 W/m² | - |
| 1778284542 | 28.33° C | 35% | 1117.6 hPa | 0 mm | - | 85 W/m² | - |
| 1778284238 | 28.89° C | 35% | 1117.5 hPa | 0 mm | - | 82 W/m² | - |
| 1778283936 | 28.89° C | 35% | 1117.2 hPa | 0 mm | - | 85 W/m² | - |
| 1778283632 | 28.89° C | 35% | 1117.4 hPa | 0 mm | - | 95 W/m² | - |
| 1778283332 | 28.89° C | 34% | 1117.4 hPa | 0 mm | - | 105 W/m² | - |
| 1778283029 | 28.89° C | 33% | 1117.4 hPa | 0 mm | - | 116 W/m² | - |
| 1778282726 | 29.44° C | 33% | 1117 hPa | 0 mm | - | 136 W/m² | - |
| 1778282422 | 29.44° C | 31% | 1117.2 hPa | 0 mm | - | 165 W/m² | - |
| 1778282120 | 29.44° C | 31% | 1117 hPa | 0 mm | - | 188 W/m² | - |
| 1778281817 | 29.44° C | 31% | 1117 hPa | 0 mm | - | 204 W/m² | - |
| 1778281514 | 30° C | 31% | 1117 hPa | 0 mm | - | 213 W/m² | - |
| 1778281210 | 30° C | 30% | 1117 hPa | 0 mm | - | 248 W/m² | - |
| 1778280908 | 30° C | 29% | 1117.3 hPa | 0 mm | - | 242 W/m² | - |
| 1778280604 | 29.44° C | 30% | 1117.2 hPa | 0 mm | - | 198 W/m² | - |
| 1778280302 | 29.44° C | 31% | 1117.2 hPa | 0 mm | - | 226 W/m² | - |
| 1778279999 | 28.89° C | 31% | 1117.2 hPa | 0 mm | - | 288 W/m² | - |
| 1778279697 | 29.44° C | 31% | 1117.2 hPa | 0 mm | - | 160 W/m² | - |
| 1778279394 | 30° C | 30% | 1117 hPa | 0 mm | - | 212 W/m² | - |
| 1778279091 | 30° C | 29% | 1116.9 hPa | 0 mm | - | 359 W/m² | - |
* Rain latest hour (hover to see other rain measurements)
** Current wind speed in m/s (hover to see current wind gust speed)